sensor_id;sensor_type;location;lat;lon;timestamp;pressure;altitude;pressure_sealevel;temperature;humidity
55032;BME280;40928;51.076;7.950;2024-01-30T00:01:24;98173.59;;;5.37;100.00
55032;BME280;40928;51.076;7.950;2024-01-30T00:03:50;98175.78;;;5.33;100.00
55032;BME280;40928;51.076;7.950;2024-01-30T00:06:19;98176.03;;;5.46;100.00
55032;BME280;40928;51.076;7.950;2024-01-30T00:08:46;98183.31;;;5.44;100.00
55032;BME280;40928;51.076;7.950;2024-01-30T00:11:14;98177.56;;;5.41;100.00
55032;BME280;40928;51.076;7.950;2024-01-30T00:13:40;98170.50;;;5.33;100.00
55032;BME280;40928;51.076;7.950;2024-01-30T00:16:06;98175.34;;;5.29;100.00
55032;BME280;40928;51.076;7.950;2024-01-30T00:18:32;98178.47;;;5.25;100.00
55032;BME280;40928;51.076;7.950;2024-01-30T00:20:57;98176.84;;;5.24;100.00
55032;BME280;40928;51.076;7.950;2024-01-30T00:23:22;98182.84;;;5.17;100.00
55032;BME280;40928;51.076;7.950;2024-01-30T00:25:48;98181.75;;;5.03;100.00
55032;BME280;40928;51.076;7.950;2024-01-30T00:28:13;98178.34;;;4.95;100.00
55032;BME280;40928;51.076;7.950;2024-01-30T00:30:39;98175.88;;;4.93;100.00
55032;BME280;40928;51.076;7.950;2024-01-30T00:33:04;98178.22;;;4.88;100.00
55032;BME280;40928;51.076;7.950;2024-01-30T00:35:30;98181.38;;;4.83;100.00
55032;BME280;40928;51.076;7.950;2024-01-30T00:37:55;98176.63;;;4.79;100.00
55032;BME280;40928;51.076;7.950;2024-01-30T00:40:21;98174.00;;;4.70;100.00
55032;BME280;40928;51.076;7.950;2024-01-30T00:42:46;98180.81;;;4.65;100.00
55032;BME280;40928;51.076;7.950;2024-01-30T00:45:15;98177.69;;;4.61;100.00
55032;BME280;40928;51.076;7.950;2024-01-30T00:47:41;98170.41;;;4.55;100.00
55032;BME280;40928;51.076;7.950;2024-01-30T00:50:06;98172.72;;;4.58;100.00
55032;BME280;40928;51.076;7.950;2024-01-30T00:52:32;98177.38;;;4.56;100.00
55032;BME280;40928;51.076;7.950;2024-01-30T00:54:59;98175.38;;;4.58;100.00
55032;BME280;40928;51.076;7.950;2024-01-30T00:57:24;98174.25;;;4.52;100.00
55032;BME280;40928;51.076;7.950;2024-01-30T00:59:50;98175.41;;;4.50;100.00
55032;BME280;40928;51.076;7.950;2024-01-30T01:02:15;98173.19;;;4.62;100.00
55032;BME280;40928;51.076;7.950;2024-01-30T01:04:43;98170.41;;;4.63;100.00
55032;BME280;40928;51.076;7.950;2024-01-30T01:07:10;98174.31;;;4.67;100.00
55032;BME280;40928;51.076;7.950;2024-01-30T01:09:35;98167.69;;;4.71;100.00
55032;BME280;40928;51.076;7.950;2024-01-30T01:12:01;98162.41;;;4.71;100.00
55032;BME280;40928;51.076;7.950;2024-01-30T01:14:27;98171.53;;;4.69;100.00
55032;BME280;40928;51.076;7.950;2024-01-30T01:16:52;98171.41;;;4.62;100.00
55032;BME280;40928;51.076;7.950;2024-01-30T01:19:18;98166.31;;;4.52;100.00
55032;BME280;40928;51.076;7.950;2024-01-30T01:21:43;98164.34;;;4.46;100.00
55032;BME280;40928;51.076;7.950;2024-01-30T01:24:09;98160.25;;;4.35;100.00
55032;BME280;40928;51.076;7.950;2024-01-30T01:26:34;98168.22;;;4.27;100.00
55032;BME280;40928;51.076;7.950;2024-01-30T01:29:00;98168.38;;;4.25;100.00
55032;BME280;40928;51.076;7.950;2024-01-30T01:31:25;98172.34;;;4.21;100.00
55032;BME280;40928;51.076;7.950;2024-01-30T01:33:54;98172.88;;;4.17;100.00
55032;BME280;40928;51.076;7.950;2024-01-30T01:36:20;98173.38;;;4.12;100.00
55032;BME280;40928;51.076;7.950;2024-01-30T01:38:46;98173.22;;;4.05;100.00
55032;BME280;40928;51.076;7.950;2024-01-30T01:41:11;98169.94;;;4.03;100.00
55032;BME280;40928;51.076;7.950;2024-01-30T01:43:37;98178.84;;;4.02;100.00
55032;BME280;40928;51.076;7.950;2024-01-30T01:46:05;98175.06;;;3.96;100.00
55032;BME280;40928;51.076;7.950;2024-01-30T01:48:31;98173.25;;;3.97;100.00
55032;BME280;40928;51.076;7.950;2024-01-30T01:50:58;98172.56;;;3.95;100.00
55032;BME280;40928;51.076;7.950;2024-01-30T01:53:24;98171.25;;;3.91;100.00
55032;BME280;40928;51.076;7.950;2024-01-30T01:55:50;98149.47;;;3.80;100.00
55032;BME280;40928;51.076;7.950;2024-01-30T01:58:19;98169.28;;;3.85;100.00
55032;BME280;40928;51.076;7.950;2024-01-30T02:00:45;98167.78;;;3.82;100.00
55032;BME280;40928;51.076;7.950;2024-01-30T02:03:13;98159.56;;;3.77;100.00
55032;BME280;40928;51.076;7.950;2024-01-30T02:05:41;98164.38;;;3.73;100.00
55032;BME280;40928;51.076;7.950;2024-01-30T02:08:08;98158.56;;;3.70;100.00
55032;BME280;40928;51.076;7.950;2024-01-30T02:10:33;98161.06;;;3.63;100.00
55032;BME280;40928;51.076;7.950;2024-01-30T02:12:59;98164.00;;;3.60;100.00
55032;BME280;40928;51.076;7.950;2024-01-30T02:15:25;98162.72;;;3.56;100.00
55032;BME280;40928;51.076;7.950;2024-01-30T02:17:50;98161.38;;;3.52;100.00
55032;BME280;40928;51.076;7.950;2024-01-30T02:20:16;98162.41;;;3.42;100.00
55032;BME280;40928;51.076;7.950;2024-01-30T02:22:42;98152.16;;;3.39;100.00
55032;BME280;40928;51.076;7.950;2024-01-30T02:25:08;98151.50;;;3.37;100.00
55032;BME280;40928;51.076;7.950;2024-01-30T02:27:34;98148.50;;;3.32;100.00
55032;BME280;40928;51.076;7.950;2024-01-30T02:29:59;98146.03;;;3.30;100.00
55032;BME280;40928;51.076;7.950;2024-01-30T02:32:25;98142.25;;;3.33;100.00
55032;BME280;40928;51.076;7.950;2024-01-30T02:34:50;98144.22;;;3.31;100.00
55032;BME280;40928;51.076;7.950;2024-01-30T02:37:16;98146.53;;;3.34;100.00
55032;BME280;40928;51.076;7.950;2024-01-30T02:39:42;98139.78;;;3.31;100.00
55032;BME280;40928;51.076;7.950;2024-01-30T02:42:08;98139.13;;;3.29;100.00
55032;BME280;40928;51.076;7.950;2024-01-30T02:44:33;98138.28;;;3.29;100.00
55032;BME280;40928;51.076;7.950;2024-01-30T02:46:58;98138.44;;;3.27;100.00
55032;BME280;40928;51.076;7.950;2024-01-30T02:49:24;98131.69;;;3.25;100.00
55032;BME280;40928;51.076;7.950;2024-01-30T02:51:51;98140.06;;;3.20;100.00
55032;BME280;40928;51.076;7.950;2024-01-30T02:54:16;98130.03;;;3.15;100.00
55032;BME280;40928;51.076;7.950;2024-01-30T02:56:42;98132.97;;;3.12;100.00
55032;BME280;40928;51.076;7.950;2024-01-30T02:59:07;98126.72;;;3.13;100.00
55032;BME280;40928;51.076;7.950;2024-01-30T03:01:33;98132.34;;;3.10;100.00
55032;BME280;40928;51.076;7.950;2024-01-30T03:03:58;98127.88;;;3.11;100.00
55032;BME280;40928;51.076;7.950;2024-01-30T03:06:24;98127.69;;;3.12;100.00
55032;BME280;40928;51.076;7.950;2024-01-30T03:08:49;98122.78;;;3.09;100.00
55032;BME280;40928;51.076;7.950;2024-01-30T03:11:15;98118.47;;;3.08;100.00
55032;BME280;40928;51.076;7.950;2024-01-30T03:13:40;98118.47;;;3.08;100.00
55032;BME280;40928;51.076;7.950;2024-01-30T03:16:06;98122.09;;;3.07;100.00
55032;BME280;40928;51.076;7.950;2024-01-30T03:18:31;98120.13;;;3.09;100.00
55032;BME280;40928;51.076;7.950;2024-01-30T03:20:57;98113.19;;;3.08;100.00
55032;BME280;40928;51.076;7.950;2024-01-30T03:23:22;98114.69;;;3.02;100.00
55032;BME280;40928;51.076;7.950;2024-01-30T03:25:48;98116.16;;;3.05;100.00
55032;BME280;40928;51.076;7.950;2024-01-30T03:28:13;98112.38;;;3.08;100.00
55032;BME280;40928;51.076;7.950;2024-01-30T03:30:39;98108.25;;;3.13;100.00
55032;BME280;40928;51.076;7.950;2024-01-30T03:33:09;98110.72;;;3.15;100.00
55032;BME280;40928;51.076;7.950;2024-01-30T03:35:34;98099.19;;;3.16;100.00
55032;BME280;40928;51.076;7.950;2024-01-30T03:38:00;98102.63;;;3.16;100.00
55032;BME280;40928;51.076;7.950;2024-01-30T03:40:26;98099.34;;;3.23;100.00
55032;BME280;40928;51.076;7.950;2024-01-30T03:42:51;98105.44;;;3.15;100.00
55032;BME280;40928;51.076;7.950;2024-01-30T03:45:17;98100.00;;;3.16;100.00
55032;BME280;40928;51.076;7.950;2024-01-30T03:47:44;98104.47;;;3.16;100.00
55032;BME280;40928;51.076;7.950;2024-01-30T03:50:10;98103.31;;;3.18;100.00
55032;BME280;40928;51.076;7.950;2024-01-30T03:52:35;98098.03;;;3.18;100.00
55032;BME280;40928;51.076;7.950;2024-01-30T03:55:01;98102.66;;;3.25;100.00
55032;BME280;40928;51.076;7.950;2024-01-30T03:57:27;98101.16;;;3.30;100.00
55032;BME280;40928;51.076;7.950;2024-01-30T03:59:52;98096.88;;;3.29;100.00
55032;BME280;40928;51.076;7.950;2024-01-30T04:02:18;98095.88;;;3.30;100.00
55032;BME280;40928;51.076;7.950;2024-01-30T04:04:44;98095.22;;;3.28;100.00
55032;BME280;40928;51.076;7.950;2024-01-30T04:07:09;98092.75;;;3.27;100.00
55032;BME280;40928;51.076;7.950;2024-01-30T04:09:35;98096.38;;;3.26;100.00
55032;BME280;40928;51.076;7.950;2024-01-30T04:12:00;98101.50;;;3.27;100.00
55032;BME280;40928;51.076;7.950;2024-01-30T04:14:28;98094.22;;;3.21;100.00
55032;BME280;40928;51.076;7.950;2024-01-30T04:16:53;98090.94;;;3.19;100.00
55032;BME280;40928;51.076;7.950;2024-01-30T04:19:19;98089.13;;;3.19;100.00
55032;BME280;40928;51.076;7.950;2024-01-30T04:21:44;98087.81;;;3.24;100.00
55032;BME280;40928;51.076;7.950;2024-01-30T04:24:10;98085.31;;;3.22;100.00
55032;BME280;40928;51.076;7.950;2024-01-30T04:26:36;98083.66;;;3.21;100.00
55032;BME280;40928;51.076;7.950;2024-01-30T04:29:02;98080.69;;;3.24;100.00
55032;BME280;40928;51.076;7.950;2024-01-30T04:31:28;98086.81;;;3.25;100.00
55032;BME280;40928;51.076;7.950;2024-01-30T04:33:53;98086.47;;;3.28;100.00
55032;BME280;40928;51.076;7.950;2024-01-30T04:36:19;98079.72;;;3.25;100.00
55032;BME280;40928;51.076;7.950;2024-01-30T04:38:44;98084.31;;;3.23;100.00
55032;BME280;40928;51.076;7.950;2024-01-30T04:41:10;98082.66;;;3.22;100.00
55032;BME280;40928;51.076;7.950;2024-01-30T04:43:35;98085.16;;;3.24;100.00
55032;BME280;40928;51.076;7.950;2024-01-30T04:46:01;98084.81;;;3.18;100.00
55032;BME280;40928;51.076;7.950;2024-01-30T04:48:27;98084.34;;;3.15;100.00
55032;BME280;40928;51.076;7.950;2024-01-30T04:50:52;98083.50;;;3.14;100.00
55032;BME280;40928;51.076;7.950;2024-01-30T04:53:18;98083.34;;;3.16;100.00
55032;BME280;40928;51.076;7.950;2024-01-30T04:55:44;98079.06;;;3.15;100.00
55032;BME280;40928;51.076;7.950;2024-01-30T04:58:09;98076.25;;;3.08;100.00
55032;BME280;40928;51.076;7.950;2024-01-30T05:00:35;98081.84;;;3.13;100.00
55032;BME280;40928;51.076;7.950;2024-01-30T05:03:01;98089.75;;;3.13;100.00
55032;BME280;40928;51.076;7.950;2024-01-30T05:05:26;98080.84;;;3.14;100.00
55032;BME280;40928;51.076;7.950;2024-01-30T05:07:51;98080.03;;;3.14;100.00
55032;BME280;40928;51.076;7.950;2024-01-30T05:10:17;98074.78;;;3.14;100.00
55032;BME280;40928;51.076;7.950;2024-01-30T05:12:43;98086.66;;;3.18;100.00
55032;BME280;40928;51.076;7.950;2024-01-30T05:15:09;98083.03;;;3.19;100.00
55032;BME280;40928;51.076;7.950;2024-01-30T05:17:34;98089.13;;;3.19;100.00
55032;BME280;40928;51.076;7.950;2024-01-30T05:20:00;98084.81;;;3.18;100.00
55032;BME280;40928;51.076;7.950;2024-01-30T05:22:25;98084.81;;;3.18;100.00
55032;BME280;40928;51.076;7.950;2024-01-30T05:24:51;98081.84;;;3.22;100.00
55032;BME280;40928;51.076;7.950;2024-01-30T05:27:16;98075.91;;;3.28;100.00
55032;BME280;40928;51.076;7.950;2024-01-30T05:29:42;98082.84;;;3.29;100.00
55032;BME280;40928;51.076;7.950;2024-01-30T05:32:07;98073.91;;;3.30;100.00
55032;BME280;40928;51.076;7.950;2024-01-30T05:34:33;98073.25;;;3.28;100.00
55032;BME280;40928;51.076;7.950;2024-01-30T05:36:58;98067.16;;;3.27;100.00
55032;BME280;40928;51.076;7.950;2024-01-30T05:39:24;98075.41;;;3.24;100.00
55032;BME280;40928;51.076;7.950;2024-01-30T05:41:49;98078.22;;;3.23;100.00
55032;BME280;40928;51.076;7.950;2024-01-30T05:44:15;98076.25;;;3.25;100.00
55032;BME280;40928;51.076;7.950;2024-01-30T05:46:41;98072.13;;;3.22;100.00
55032;BME280;40928;51.076;7.950;2024-01-30T05:49:07;98070.31;;;3.23;100.00
55032;BME280;40928;51.076;7.950;2024-01-30T05:51:32;98068.00;;;3.19;100.00
55032;BME280;40928;51.076;7.950;2024-01-30T05:53:58;98056.44;;;3.29;100.00
55032;BME280;40928;51.076;7.950;2024-01-30T05:56:24;98068.31;;;3.33;100.00
55032;BME280;40928;51.076;7.950;2024-01-30T05:58:49;98065.69;;;3.33;100.00
55032;BME280;40928;51.076;7.950;2024-01-30T06:01:16;98068.00;;;3.36;100.00
55032;BME280;40928;51.076;7.950;2024-01-30T06:03:41;98066.50;;;3.42;100.00
55032;BME280;40928;51.076;7.950;2024-01-30T06:06:08;98065.00;;;3.47;100.00
55032;BME280;40928;51.076;7.950;2024-01-30T06:08:34;98076.38;;;3.56;100.00
55032;BME280;40928;51.076;7.950;2024-01-30T06:10:59;98076.00;;;3.68;100.00
55032;BME280;40928;51.076;7.950;2024-01-30T06:13:26;98081.59;;;3.89;100.00
55032;BME280;40928;51.076;7.950;2024-01-30T06:15:52;98073.47;;;3.99;100.00
55032;BME280;40928;51.076;7.950;2024-01-30T06:18:18;98079.06;;;4.04;100.00
55032;BME280;40928;51.076;7.950;2024-01-30T06:20:44;98075.88;;;4.17;100.00
55032;BME280;40928;51.076;7.950;2024-01-30T06:23:12;98081.75;;;4.36;100.00
55032;BME280;40928;51.076;7.950;2024-01-30T06:25:40;98078.88;;;4.46;100.00
55032;BME280;40928;51.076;7.950;2024-01-30T06:28:06;98071.97;;;4.36;100.00
55032;BME280;40928;51.076;7.950;2024-01-30T06:30:31;98076.97;;;4.31;100.00
55032;BME280;40928;51.076;7.950;2024-01-30T06:32:57;98075.47;;;4.29;100.00
55032;BME280;40928;51.076;7.950;2024-01-30T06:35:22;98079.97;;;4.28;100.00
55032;BME280;40928;51.076;7.950;2024-01-30T06:37:48;98080.78;;;4.29;100.00
55032;BME280;40928;51.076;7.950;2024-01-30T06:40:14;98080.78;;;4.29;100.00
55032;BME280;40928;51.076;7.950;2024-01-30T06:42:40;98086.91;;;4.29;100.00
55032;BME280;40928;51.076;7.950;2024-01-30T06:45:06;98081.28;;;4.24;100.00
55032;BME280;40928;51.076;7.950;2024-01-30T06:47:31;98082.47;;;4.21;100.00
55032;BME280;40928;51.076;7.950;2024-01-30T06:49:57;98079.81;;;4.21;100.00
55032;BME280;40928;51.076;7.950;2024-01-30T06:52:22;98082.47;;;4.21;100.00
55032;BME280;40928;51.076;7.950;2024-01-30T06:54:48;98085.78;;;4.23;100.00
55032;BME280;40928;51.076;7.950;2024-01-30T06:57:13;98088.56;;;4.22;100.00
55032;BME280;40928;51.076;7.950;2024-01-30T06:59:39;98087.94;;;4.20;100.00
55032;BME280;40928;51.076;7.950;2024-01-30T07:02:12;98076.06;;;4.16;100.00
55032;BME280;40928;51.076;7.950;2024-01-30T07:04:37;98076.19;;;4.14;100.00
55032;BME280;40928;51.076;7.950;2024-01-30T07:07:04;98085.13;;;4.13;100.00
55032;BME280;40928;51.076;7.950;2024-01-30T07:09:31;98084.31;;;4.13;100.00
55032;BME280;40928;51.076;7.950;2024-01-30T07:11:56;98079.34;;;4.18;100.00
55032;BME280;40928;51.076;7.950;2024-01-30T07:14:24;98088.22;;;4.25;100.00
55032;BME280;40928;51.076;7.950;2024-01-30T07:16:49;98083.06;;;4.40;100.00
55032;BME280;40928;51.076;7.950;2024-01-30T07:19:16;98083.50;;;4.75;100.00
55032;BME280;40928;51.076;7.950;2024-01-30T07:21:41;98079.28;;;4.89;100.00
55032;BME280;40928;51.076;7.950;2024-01-30T07:24:07;98078.28;;;4.90;100.00
55032;BME280;40928;51.076;7.950;2024-01-30T07:26:32;98081.94;;;4.89;100.00
55032;BME280;40928;51.076;7.950;2024-01-30T07:28:58;98078.47;;;4.88;100.00
55032;BME280;40928;51.076;7.950;2024-01-30T07:31:23;98086.56;;;5.10;100.00
55032;BME280;40928;51.076;7.950;2024-01-30T07:33:49;98089.34;;;5.17;100.00
55032;BME280;40928;51.076;7.950;2024-01-30T07:36:14;98094.09;;;5.22;100.00
55032;BME280;40928;51.076;7.950;2024-01-30T07:38:40;98090.44;;;5.23;100.00
55032;BME280;40928;51.076;7.950;2024-01-30T07:41:05;98083.50;;;5.45;100.00
55032;BME280;40928;51.076;7.950;2024-01-30T07:43:31;98080.19;;;5.43;100.00
55032;BME280;40928;51.076;7.950;2024-01-30T07:45:56;98084.75;;;5.49;100.00
55032;BME280;40928;51.076;7.950;2024-01-30T07:48:22;98079.94;;;5.53;100.00
55032;BME280;40928;51.076;7.950;2024-01-30T07:50:47;98087.91;;;5.53;100.00
55032;BME280;40928;51.076;7.950;2024-01-30T07:53:13;98083.22;;;5.55;100.00
55032;BME280;40928;51.076;7.950;2024-01-30T07:55:38;98084.69;;;5.57;100.00
55032;BME280;40928;51.076;7.950;2024-01-30T07:58:04;98087.00;;;5.60;100.00
55032;BME280;40928;51.076;7.950;2024-01-30T08:00:30;98089.91;;;5.66;100.00
55032;BME280;40928;51.076;7.950;2024-01-30T08:02:55;98092.19;;;5.69;100.00
55032;BME280;40928;51.076;7.950;2024-01-30T08:05:21;98091.19;;;5.70;100.00
55032;BME280;40928;51.076;7.950;2024-01-30T08:07:50;98102.44;;;5.72;100.00
55032;BME280;40928;51.076;7.950;2024-01-30T08:10:16;98096.78;;;5.75;100.00
55032;BME280;40928;51.076;7.950;2024-01-30T08:12:43;98103.75;;;5.76;100.00
55032;BME280;40928;51.076;7.950;2024-01-30T08:15:09;98108.94;;;5.84;100.00
55032;BME280;40928;51.076;7.950;2024-01-30T08:17:34;98100.44;;;5.89;100.00
55032;BME280;40928;51.076;7.950;2024-01-30T08:20:00;98099.72;;;5.95;100.00
55032;BME280;40928;51.076;7.950;2024-01-30T08:22:25;98097.53;;;5.99;100.00
55032;BME280;40928;51.076;7.950;2024-01-30T08:24:51;98106.44;;;6.06;100.00
55032;BME280;40928;51.076;7.950;2024-01-30T08:27:16;98104.53;;;6.15;100.00
55032;BME280;40928;51.076;7.950;2024-01-30T08:29:42;98111.91;;;6.19;100.00
55032;BME280;40928;51.076;7.950;2024-01-30T08:32:08;98107.06;;;6.23;100.00
55032;BME280;40928;51.076;7.950;2024-01-30T08:34:33;98118.75;;;6.29;100.00
55032;BME280;40928;51.076;7.950;2024-01-30T08:36:59;98109.44;;;6.33;100.00
55032;BME280;40928;51.076;7.950;2024-01-30T08:39:24;98112.97;;;6.40;100.00
55032;BME280;40928;51.076;7.950;2024-01-30T08:41:50;98107.75;;;6.62;100.00
55032;BME280;40928;51.076;7.950;2024-01-30T08:44:16;98109.66;;;6.68;100.00
55032;BME280;40928;51.076;7.950;2024-01-30T08:46:43;98114.41;;;6.73;100.00
55032;BME280;40928;51.076;7.950;2024-01-30T08:49:10;98105.28;;;6.60;100.00
55032;BME280;40928;51.076;7.950;2024-01-30T08:51:35;98110.03;;;6.65;100.00
55032;BME280;40928;51.076;7.950;2024-01-30T08:54:02;98110.03;;;6.65;100.00
55032;BME280;40928;51.076;7.950;2024-01-30T08:56:28;98107.00;;;6.68;100.00
55032;BME280;40928;51.076;7.950;2024-01-30T08:58:53;98110.28;;;6.70;100.00
55032;BME280;40928;51.076;7.950;2024-01-30T09:01:19;98113.75;;;6.70;100.00
55032;BME280;40928;51.076;7.950;2024-01-30T09:03:45;98105.66;;;6.79;100.00
55032;BME280;40928;51.076;7.950;2024-01-30T09:06:12;98110.19;;;6.78;100.00
55032;BME280;40928;51.076;7.950;2024-01-30T09:08:38;98110.81;;;6.80;100.00
55032;BME280;40928;51.076;7.950;2024-01-30T09:11:13;98107.78;;;6.83;100.00
55032;BME280;40928;51.076;7.950;2024-01-30T09:13:39;98109.44;;;6.84;100.00
55032;BME280;40928;51.076;7.950;2024-01-30T09:16:06;98115.56;;;6.85;100.00
55032;BME280;40928;51.076;7.950;2024-01-30T09:18:31;98112.69;;;6.86;100.00
55032;BME280;40928;51.076;7.950;2024-01-30T09:20:57;98109.16;;;6.79;100.00
55032;BME280;40928;51.076;7.950;2024-01-30T09:23:23;98110.97;;;6.79;100.00
55032;BME280;40928;51.076;7.950;2024-01-30T09:25:48;98115.47;;;6.78;100.00
55032;BME280;40928;51.076;7.950;2024-01-30T09:28:14;98107.31;;;6.80;100.00
55032;BME280;40928;51.076;7.950;2024-01-30T09:30:40;98107.31;;;6.80;100.00
55032;BME280;40928;51.076;7.950;2024-01-30T09:33:06;98106.78;;;6.84;100.00
55032;BME280;40928;51.076;7.950;2024-01-30T09:35:32;98095.47;;;6.97;100.00
55032;BME280;40928;51.076;7.950;2024-01-30T09:37:57;98095.59;;;6.89;100.00
55032;BME280;40928;51.076;7.950;2024-01-30T09:40:24;98096.41;;;6.90;100.00
55032;BME280;40928;51.076;7.950;2024-01-30T09:42:53;98103.56;;;6.89;100.00
55032;BME280;40928;51.076;7.950;2024-01-30T09:45:19;98112.16;;;6.91;100.00
55032;BME280;40928;51.076;7.950;2024-01-30T09:47:45;98113.25;;;6.97;100.00
55032;BME280;40928;51.076;7.950;2024-01-30T09:50:15;98115.69;;;6.98;100.00
55032;BME280;40928;51.076;7.950;2024-01-30T09:52:43;98114.09;;;7.04;100.00
55032;BME280;40928;51.076;7.950;2024-01-30T09:55:09;98127.66;;;7.09;100.00
55032;BME280;40928;51.076;7.950;2024-01-30T09:57:35;98134.88;;;7.15;100.00
55032;BME280;40928;51.076;7.950;2024-01-30T10:00:02;98135.13;;;7.21;100.00
55032;BME280;40928;51.076;7.950;2024-01-30T10:02:38;98131.88;;;7.25;100.00
55032;BME280;40928;51.076;7.950;2024-01-30T10:05:04;98135.22;;;7.34;100.00
55032;BME280;40928;51.076;7.950;2024-01-30T10:07:31;98119.81;;;7.44;100.00
55032;BME280;40928;51.076;7.950;2024-01-30T10:09:56;98124.91;;;7.68;100.00
55032;BME280;40928;51.076;7.950;2024-01-30T10:12:22;98126.22;;;8.14;100.00
55032;BME280;40928;51.076;7.950;2024-01-30T10:14:48;98134.25;;;8.56;100.00
55032;BME280;40928;51.076;7.950;2024-01-30T10:17:13;98128.25;;;8.95;99.30
55032;BME280;40928;51.076;7.950;2024-01-30T10:19:39;98129.25;;;8.88;96.48
55032;BME280;40928;51.076;7.950;2024-01-30T10:22:05;98123.94;;;8.94;95.64
55032;BME280;40928;51.076;7.950;2024-01-30T10:24:33;98138.69;;;8.97;94.80
55032;BME280;40928;51.076;7.950;2024-01-30T10:26:59;98143.16;;;8.83;96.23
55032;BME280;40928;51.076;7.950;2024-01-30T10:29:24;98132.25;;;8.64;96.39
55032;BME280;40928;51.076;7.950;2024-01-30T10:32:03;98133.78;;;8.45;97.63
55032;BME280;40928;51.076;7.950;2024-01-30T10:34:29;98127.00;;;8.43;98.34
55032;BME280;40928;51.076;7.950;2024-01-30T10:37:10;98129.81;;;8.34;98.99
55032;BME280;40928;51.076;7.950;2024-01-30T10:39:41;98122.50;;;8.43;98.96
55032;BME280;40928;51.076;7.950;2024-01-30T10:42:15;98120.09;;;8.48;98.57
55032;BME280;40928;51.076;7.950;2024-01-30T10:47:22;98122.19;;;8.60;98.65
55032;BME280;40928;51.076;7.950;2024-01-30T10:49:51;98139.59;;;8.62;97.33
55032;BME280;40928;51.076;7.950;2024-01-30T10:52:18;98125.47;;;8.62;98.12
55032;BME280;40928;51.076;7.950;2024-01-30T10:54:44;98119.91;;;8.50;98.38
55032;BME280;40928;51.076;7.950;2024-01-30T10:57:11;98121.34;;;8.52;98.83
55032;BME280;40928;51.076;7.950;2024-01-30T10:59:38;98122.19;;;8.60;98.39
55032;BME280;40928;51.076;7.950;2024-01-30T11:02:05;98136.53;;;8.59;98.03
55032;BME280;40928;51.076;7.950;2024-01-30T11:04:38;98141.47;;;8.62;98.10
55032;BME280;40928;51.076;7.950;2024-01-30T11:07:17;98133.66;;;8.60;98.96
55032;BME280;40928;51.076;7.950;2024-01-30T11:09:53;98125.88;;;8.59;98.61
55032;BME280;40928;51.076;7.950;2024-01-30T11:12:28;98125.13;;;8.72;98.77
55032;BME280;40928;51.076;7.950;2024-01-30T11:15:10;98126.19;;;8.91;97.46
55032;BME280;40928;51.076;7.950;2024-01-30T11:20:18;98132.53;;;8.83;96.81
55032;BME280;40928;51.076;7.950;2024-01-30T11:22:49;98129.22;;;8.81;97.17
55032;BME280;40928;51.076;7.950;2024-01-30T11:25:17;98134.16;;;8.84;96.34
55032;BME280;40928;51.076;7.950;2024-01-30T11:27:43;98137.84;;;8.83;98.21
55032;BME280;40928;51.076;7.950;2024-01-30T11:30:10;98136.47;;;9.07;96.52
55032;BME280;40928;51.076;7.950;2024-01-30T11:32:36;98125.44;;;9.31;95.18
55032;BME280;40928;51.076;7.950;2024-01-30T11:35:05;98129.53;;;9.20;94.10
55032;BME280;40928;51.076;7.950;2024-01-30T11:37:32;98119.72;;;9.34;93.67
55032;BME280;40928;51.076;7.950;2024-01-30T11:40:02;98115.41;;;9.39;94.27
55032;BME280;40928;51.076;7.950;2024-01-30T11:42:29;98115.19;;;9.81;93.19
55032;BME280;40928;51.076;7.950;2024-01-30T11:44:55;98113.25;;;10.22;90.55
55032;BME280;40928;51.076;7.950;2024-01-30T11:47:22;98111.03;;;10.26;88.74
55032;BME280;40928;51.076;7.950;2024-01-30T11:49:48;98113.06;;;10.30;88.89
55032;BME280;40928;51.076;7.950;2024-01-30T11:52:13;98103.59;;;10.48;88.40
55032;BME280;40928;51.076;7.950;2024-01-30T11:54:40;98108.34;;;10.39;87.68
55032;BME280;40928;51.076;7.950;2024-01-30T11:57:05;98114.16;;;9.96;89.04
55032;BME280;40928;51.076;7.950;2024-01-30T11:59:31;98110.69;;;9.68;90.57
55032;BME280;40928;51.076;7.950;2024-01-30T12:01:56;98100.03;;;9.55;92.25
55032;BME280;40928;51.076;7.950;2024-01-30T12:04:22;98097.38;;;9.48;92.69
55032;BME280;40928;51.076;7.950;2024-01-30T12:06:51;98109.88;;;9.61;92.99
55032;BME280;40928;51.076;7.950;2024-01-30T12:09:16;98110.88;;;9.67;92.11
55032;BME280;40928;51.076;7.950;2024-01-30T12:11:46;98104.06;;;9.98;92.08
55032;BME280;40928;51.076;7.950;2024-01-30T12:14:12;98110.00;;;10.27;90.23
55032;BME280;40928;51.076;7.950;2024-01-30T12:16:38;98109.53;;;10.30;89.68
55032;BME280;40928;51.076;7.950;2024-01-30T12:19:04;98112.91;;;10.05;88.73
55032;BME280;40928;51.076;7.950;2024-01-30T12:21:29;98121.72;;;10.05;89.54
55032;BME280;40928;51.076;7.950;2024-01-30T12:23:57;98104.22;;;10.30;88.82
55032;BME280;40928;51.076;7.950;2024-01-30T12:26:24;98097.25;;;10.22;88.54
55032;BME280;40928;51.076;7.950;2024-01-30T12:28:51;98108.22;;;9.94;89.91
55032;BME280;40928;51.076;7.950;2024-01-30T12:31:16;98104.72;;;9.93;90.25
55032;BME280;40928;51.076;7.950;2024-01-30T12:33:42;98101.88;;;9.88;89.45
55032;BME280;40928;51.076;7.950;2024-01-30T12:36:07;98101.03;;;9.74;90.92
55032;BME280;40928;51.076;7.950;2024-01-30T12:38:33;98099.63;;;9.65;92.45
55032;BME280;40928;51.076;7.950;2024-01-30T12:40:58;98107.19;;;9.61;92.39
55032;BME280;40928;51.076;7.950;2024-01-30T12:43:24;98104.53;;;9.48;92.58
55032;BME280;40928;51.076;7.950;2024-01-30T12:45:50;98101.88;;;9.48;92.96
55032;BME280;40928;51.076;7.950;2024-01-30T12:48:15;98105.97;;;9.50;92.69
55032;BME280;40928;51.076;7.950;2024-01-30T12:50:41;98099.81;;;9.43;92.83
55032;BME280;40928;51.076;7.950;2024-01-30T12:53:07;98100.63;;;9.43;93.05
55032;BME280;40928;51.076;7.950;2024-01-30T12:55:34;98096.53;;;9.41;93.88
55032;BME280;40928;51.076;7.950;2024-01-30T12:57:59;98101.06;;;9.40;93.37
55032;BME280;40928;51.076;7.950;2024-01-30T13:00:25;98099.03;;;9.49;93.20
55032;BME280;40928;51.076;7.950;2024-01-30T13:02:50;98104.13;;;9.51;93.17